Ontario International Airport
KONT : now visible

Airfield :











YOU CAN JOIN US ON...

 
LOGIN :

Register | Disclaimer

   EN    FR    IT 

 









Legend :    VFR   Marginal VFR   IFR   Intensive IFR   Very Intensive IFR
Visi :
Ceiling :
>= 8 km
>= 3000ft
5 to 8 km
1000 to 3000 ft
1500m to 5 km
500 to 1000 ft
800 to 1500m
200 to 500 ft
< 800m
< 200 ft
Symbols :   Thunderstorms  Fog  Heavy snow  Heavy precipitations  Wind > 20 kt






- Airport Elevation : 944 ft
- IATA code : ONT


KONT - Ontario International

CURRENT METAR :
  • 090253Z 32010KT 10SM BKN035 10/06 A3006 RMK AO2 SLP181 T01000061 53020

EXPIRED METARs :
  • 090153Z 29008KT 10SM FEW025 SCT045 SCT080 BKN250 11/06 A3003 RMK AO2 SLP172 TCU DSNT E AND SW-W VCSH T01060061
  • 090053Z 28011KT 10SM FEW025 SCT050 BKN080 BKN250 12/06 A3001 RMK AO2 SLP165 VIRGA T01220056

TAF KONT
Valid from the 09 at 00:00 until the 10 at 06:00 UTC


082341Z 0900/1006 28011G18KT P6SM VCSH SCT025 BKN070
FM090500 26006KT P6SM VCSH SCT020 BKN035
FM092000 24010KT 5SM SHRA SCT020 BKN030
FM100300 VRB04KT 5SM SHRA SCT020 BKN030



MET'MAP, your aeronautical weather chart ! - Copyright ORBIFLY December 2007 - Disclaimer

ORBIFLY MET'MAP TEAM :

Programming & Development : Alexandra Zaïnal
Concept & original design : Baudouin d'Aumeries
Assistance for programming : Marc-Olivier Méhu
Technical & hardware support : Manuel Goepfert

Contact : metmap@orbifly.com




SOURCES & CREDITS :

   NOAA       Earth
Advisory